sensor_id;sensor_type;location;lat;lon;timestamp;P1;durP1;ratioP1;P2;durP2;ratioP2
5559;SDS011;2803;47.916;8.074;2023-12-20T00:01:08;0.90;;;0.50;;
5559;SDS011;2803;47.916;8.074;2023-12-20T00:03:34;0.77;;;0.40;;
5559;SDS011;2803;47.916;8.074;2023-12-20T00:06:01;0.90;;;0.50;;
5559;SDS011;2803;47.916;8.074;2023-12-20T00:08:28;1.10;;;0.60;;
5559;SDS011;2803;47.916;8.074;2023-12-20T00:10:55;0.80;;;0.50;;
5559;SDS011;2803;47.916;8.074;2023-12-20T00:13:22;0.90;;;0.50;;
5559;SDS011;2803;47.916;8.074;2023-12-20T00:15:49;0.90;;;0.47;;
5559;SDS011;2803;47.916;8.074;2023-12-20T00:18:15;0.80;;;0.50;;
5559;SDS011;2803;47.916;8.074;2023-12-20T00:20:42;0.80;;;0.50;;
5559;SDS011;2803;47.916;8.074;2023-12-20T00:23:08;0.77;;;0.50;;
5559;SDS011;2803;47.916;8.074;2023-12-20T00:25:35;0.90;;;0.60;;
5559;SDS011;2803;47.916;8.074;2023-12-20T00:28:03;0.80;;;0.50;;
5559;SDS011;2803;47.916;8.074;2023-12-20T00:30:29;0.80;;;0.50;;
5559;SDS011;2803;47.916;8.074;2023-12-20T00:32:56;0.80;;;0.50;;
5559;SDS011;2803;47.916;8.074;2023-12-20T00:35:23;0.80;;;0.43;;
5559;SDS011;2803;47.916;8.074;2023-12-20T00:37:49;0.80;;;0.50;;
5559;SDS011;2803;47.916;8.074;2023-12-20T00:40:16;0.80;;;0.50;;
5559;SDS011;2803;47.916;8.074;2023-12-20T00:42:43;0.73;;;0.43;;
5559;SDS011;2803;47.916;8.074;2023-12-20T00:45:13;0.80;;;0.50;;
5559;SDS011;2803;47.916;8.074;2023-12-20T00:47:39;0.80;;;0.50;;
5559;SDS011;2803;47.916;8.074;2023-12-20T00:50:06;0.80;;;0.50;;
5559;SDS011;2803;47.916;8.074;2023-12-20T00:52:34;1.67;;;0.60;;
5559;SDS011;2803;47.916;8.074;2023-12-20T00:55:00;1.00;;;0.60;;
5559;SDS011;2803;47.916;8.074;2023-12-20T00:57:27;3.07;;;0.60;;
5559;SDS011;2803;47.916;8.074;2023-12-20T00:59:54;0.80;;;0.50;;
5559;SDS011;2803;47.916;8.074;2023-12-20T01:02:22;0.90;;;0.50;;
5559;SDS011;2803;47.916;8.074;2023-12-20T01:04:48;0.83;;;0.53;;
5559;SDS011;2803;47.916;8.074;2023-12-20T01:07:15;0.80;;;0.40;;
5559;SDS011;2803;47.916;8.074;2023-12-20T01:09:41;1.10;;;0.63;;
5559;SDS011;2803;47.916;8.074;2023-12-20T01:12:08;0.80;;;0.50;;
5559;SDS011;2803;47.916;8.074;2023-12-20T01:14:35;1.73;;;0.60;;
5559;SDS011;2803;47.916;8.074;2023-12-20T01:17:01;0.70;;;0.40;;
5559;SDS011;2803;47.916;8.074;2023-12-20T01:19:29;2.40;;;0.50;;
5559;SDS011;2803;47.916;8.074;2023-12-20T01:21:56;1.17;;;0.50;;
5559;SDS011;2803;47.916;8.074;2023-12-20T01:24:23;0.90;;;0.50;;
5559;SDS011;2803;47.916;8.074;2023-12-20T01:26:49;0.80;;;0.50;;
5559;SDS011;2803;47.916;8.074;2023-12-20T01:29:16;2.30;;;0.40;;
5559;SDS011;2803;47.916;8.074;2023-12-20T01:31:42;0.70;;;0.50;;
5559;SDS011;2803;47.916;8.074;2023-12-20T01:34:09;0.80;;;0.50;;
5559;SDS011;2803;47.916;8.074;2023-12-20T01:36:37;1.10;;;0.63;;
5559;SDS011;2803;47.916;8.074;2023-12-20T01:39:03;0.70;;;0.40;;
5559;SDS011;2803;47.916;8.074;2023-12-20T01:41:30;0.70;;;0.40;;
5559;SDS011;2803;47.916;8.074;2023-12-20T01:43:56;1.10;;;0.50;;
5559;SDS011;2803;47.916;8.074;2023-12-20T01:46:23;0.70;;;0.40;;
5559;SDS011;2803;47.916;8.074;2023-12-20T01:48:51;1.20;;;0.70;;
5559;SDS011;2803;47.916;8.074;2023-12-20T01:51:18;0.90;;;0.50;;
5559;SDS011;2803;47.916;8.074;2023-12-20T01:53:47;0.80;;;0.40;;
5559;SDS011;2803;47.916;8.074;2023-12-20T01:56:14;0.80;;;0.50;;
5559;SDS011;2803;47.916;8.074;2023-12-20T01:58:43;0.87;;;0.40;;
5559;SDS011;2803;47.916;8.074;2023-12-20T02:01:11;1.20;;;0.60;;
5559;SDS011;2803;47.916;8.074;2023-12-20T02:03:37;0.70;;;0.40;;
5559;SDS011;2803;47.916;8.074;2023-12-20T02:06:05;0.70;;;0.40;;
5559;SDS011;2803;47.916;8.074;2023-12-20T02:08:31;0.77;;;0.53;;
5559;SDS011;2803;47.916;8.074;2023-12-20T02:11:00;1.10;;;0.40;;
5559;SDS011;2803;47.916;8.074;2023-12-20T02:13:26;0.73;;;0.43;;
5559;SDS011;2803;47.916;8.074;2023-12-20T02:15:53;1.00;;;0.50;;
5559;SDS011;2803;47.916;8.074;2023-12-20T02:18:21;0.70;;;0.40;;
5559;SDS011;2803;47.916;8.074;2023-12-20T02:20:48;0.70;;;0.40;;
5559;SDS011;2803;47.916;8.074;2023-12-20T02:23:16;1.50;;;0.60;;
5559;SDS011;2803;47.916;8.074;2023-12-20T02:25:42;0.90;;;0.50;;
5559;SDS011;2803;47.916;8.074;2023-12-20T02:28:09;0.90;;;0.50;;
5559;SDS011;2803;47.916;8.074;2023-12-20T02:30:35;6.23;;;0.60;;
5559;SDS011;2803;47.916;8.074;2023-12-20T02:33:02;2.80;;;0.53;;
5559;SDS011;2803;47.916;8.074;2023-12-20T02:35:33;0.80;;;0.50;;
5559;SDS011;2803;47.916;8.074;2023-12-20T02:38:00;2.40;;;0.60;;
5559;SDS011;2803;47.916;8.074;2023-12-20T02:40:28;4.73;;;0.57;;
5559;SDS011;2803;47.916;8.074;2023-12-20T02:42:54;3.07;;;0.60;;
5559;SDS011;2803;47.916;8.074;2023-12-20T02:45:21;0.90;;;0.50;;
5559;SDS011;2803;47.916;8.074;2023-12-20T02:47:47;0.93;;;0.50;;
5559;SDS011;2803;47.916;8.074;2023-12-20T02:50:14;2.00;;;0.60;;
5559;SDS011;2803;47.916;8.074;2023-12-20T02:52:42;0.80;;;0.50;;
5559;SDS011;2803;47.916;8.074;2023-12-20T02:55:10;1.23;;;0.50;;
5559;SDS011;2803;47.916;8.074;2023-12-20T02:57:38;0.80;;;0.40;;
5559;SDS011;2803;47.916;8.074;2023-12-20T03:00:07;0.80;;;0.43;;
5559;SDS011;2803;47.916;8.074;2023-12-20T03:02:34;1.00;;;0.50;;
5559;SDS011;2803;47.916;8.074;2023-12-20T03:05:00;4.33;;;0.50;;
5559;SDS011;2803;47.916;8.074;2023-12-20T03:07:27;0.90;;;0.60;;
5559;SDS011;2803;47.916;8.074;2023-12-20T03:09:54;3.10;;;0.70;;
5559;SDS011;2803;47.916;8.074;2023-12-20T03:12:20;1.07;;;0.50;;
5559;SDS011;2803;47.916;8.074;2023-12-20T03:14:49;1.13;;;0.50;;
5559;SDS011;2803;47.916;8.074;2023-12-20T03:17:15;2.20;;;0.50;;
5559;SDS011;2803;47.916;8.074;2023-12-20T03:19:42;4.30;;;0.60;;
5559;SDS011;2803;47.916;8.074;2023-12-20T03:22:08;1.20;;;0.50;;
5559;SDS011;2803;47.916;8.074;2023-12-20T03:24:35;0.70;;;0.40;;
5559;SDS011;2803;47.916;8.074;2023-12-20T03:27:01;0.90;;;0.50;;
5559;SDS011;2803;47.916;8.074;2023-12-20T03:29:29;0.77;;;0.60;;
5559;SDS011;2803;47.916;8.074;2023-12-20T03:31:57;0.90;;;0.47;;
5559;SDS011;2803;47.916;8.074;2023-12-20T03:34:24;3.53;;;0.50;;
5559;SDS011;2803;47.916;8.074;2023-12-20T03:36:50;1.27;;;0.50;;
5559;SDS011;2803;47.916;8.074;2023-12-20T03:39:17;1.00;;;0.50;;
5559;SDS011;2803;47.916;8.074;2023-12-20T03:41:43;1.23;;;0.50;;
5559;SDS011;2803;47.916;8.074;2023-12-20T03:44:10;1.37;;;0.50;;
5559;SDS011;2803;47.916;8.074;2023-12-20T03:46:37;2.10;;;1.00;;
5559;SDS011;2803;47.916;8.074;2023-12-20T03:49:05;2.17;;;0.50;;
5559;SDS011;2803;47.916;8.074;2023-12-20T03:51:31;1.10;;;0.60;;
5559;SDS011;2803;47.916;8.074;2023-12-20T03:53:58;0.80;;;0.60;;
5559;SDS011;2803;47.916;8.074;2023-12-20T03:56:24;1.13;;;0.50;;
5559;SDS011;2803;47.916;8.074;2023-12-20T03:58:51;1.77;;;0.50;;
5559;SDS011;2803;47.916;8.074;2023-12-20T04:01:18;1.20;;;0.50;;
5559;SDS011;2803;47.916;8.074;2023-12-20T04:03:44;1.30;;;0.60;;
5559;SDS011;2803;47.916;8.074;2023-12-20T04:06:17;0.90;;;0.53;;
5559;SDS011;2803;47.916;8.074;2023-12-20T04:08:43;0.70;;;0.40;;
5559;SDS011;2803;47.916;8.074;2023-12-20T04:11:10;0.80;;;0.50;;
5559;SDS011;2803;47.916;8.074;2023-12-20T04:13:37;0.70;;;0.43;;
5559;SDS011;2803;47.916;8.074;2023-12-20T04:16:03;1.53;;;0.50;;
5559;SDS011;2803;47.916;8.074;2023-12-20T04:18:30;1.17;;;0.40;;
5559;SDS011;2803;47.916;8.074;2023-12-20T04:20:57;0.80;;;0.40;;
5559;SDS011;2803;47.916;8.074;2023-12-20T04:23:24;0.70;;;0.40;;
5559;SDS011;2803;47.916;8.074;2023-12-20T04:25:51;4.80;;;0.57;;
5559;SDS011;2803;47.916;8.074;2023-12-20T04:28:19;1.50;;;0.70;;
5559;SDS011;2803;47.916;8.074;2023-12-20T04:30:46;0.90;;;0.60;;
5559;SDS011;2803;47.916;8.074;2023-12-20T04:33:12;4.27;;;0.90;;
5559;SDS011;2803;47.916;8.074;2023-12-20T04:35:39;1.00;;;0.60;;
5559;SDS011;2803;47.916;8.074;2023-12-20T04:38:07;5.53;;;2.33;;
5559;SDS011;2803;47.916;8.074;2023-12-20T04:40:36;11.20;;;4.40;;
5559;SDS011;2803;47.916;8.074;2023-12-20T04:43:02;14.10;;;5.10;;
5559;SDS011;2803;47.916;8.074;2023-12-20T04:45:29;7.07;;;2.33;;
5559;SDS011;2803;47.916;8.074;2023-12-20T04:47:56;8.53;;;1.40;;
5559;SDS011;2803;47.916;8.074;2023-12-20T04:50:22;2.20;;;1.40;;
5559;SDS011;2803;47.916;8.074;2023-12-20T04:52:49;1.70;;;1.00;;
5559;SDS011;2803;47.916;8.074;2023-12-20T04:55:16;2.17;;;0.50;;
5559;SDS011;2803;47.916;8.074;2023-12-20T04:57:44;1.53;;;0.70;;
5559;SDS011;2803;47.916;8.074;2023-12-20T05:00:11;1.40;;;0.77;;
5559;SDS011;2803;47.916;8.074;2023-12-20T05:02:40;3.73;;;1.20;;
5559;SDS011;2803;47.916;8.074;2023-12-20T05:05:07;3.43;;;0.67;;
5559;SDS011;2803;47.916;8.074;2023-12-20T05:07:34;0.83;;;0.50;;
5559;SDS011;2803;47.916;8.074;2023-12-20T05:10:01;5.53;;;0.70;;
5559;SDS011;2803;47.916;8.074;2023-12-20T05:12:29;2.73;;;0.90;;
5559;SDS011;2803;47.916;8.074;2023-12-20T05:14:57;2.00;;;0.90;;
5559;SDS011;2803;47.916;8.074;2023-12-20T05:17:26;2.83;;;0.97;;
5559;SDS011;2803;47.916;8.074;2023-12-20T05:19:52;0.80;;;0.50;;
5559;SDS011;2803;47.916;8.074;2023-12-20T05:22:19;1.50;;;0.90;;
5559;SDS011;2803;47.916;8.074;2023-12-20T05:24:46;1.27;;;0.70;;
5559;SDS011;2803;47.916;8.074;2023-12-20T05:27:12;4.93;;;0.80;;
5559;SDS011;2803;47.916;8.074;2023-12-20T05:29:39;3.23;;;0.80;;
5559;SDS011;2803;47.916;8.074;2023-12-20T05:32:07;2.53;;;1.13;;
5559;SDS011;2803;47.916;8.074;2023-12-20T05:34:33;1.93;;;0.77;;
5559;SDS011;2803;47.916;8.074;2023-12-20T05:37:00;4.20;;;1.47;;
5559;SDS011;2803;47.916;8.074;2023-12-20T05:39:27;1.20;;;0.90;;
5559;SDS011;2803;47.916;8.074;2023-12-20T05:41:55;1.67;;;0.80;;
5559;SDS011;2803;47.916;8.074;2023-12-20T05:44:22;6.13;;;1.00;;
5559;SDS011;2803;47.916;8.074;2023-12-20T05:46:49;3.70;;;0.93;;
5559;SDS011;2803;47.916;8.074;2023-12-20T05:49:17;5.50;;;1.30;;
5559;SDS011;2803;47.916;8.074;2023-12-20T05:51:43;2.03;;;0.77;;
5559;SDS011;2803;47.916;8.074;2023-12-20T05:54:10;6.70;;;1.47;;
5559;SDS011;2803;47.916;8.074;2023-12-20T05:56:36;2.50;;;1.00;;
5559;SDS011;2803;47.916;8.074;2023-12-20T05:59:03;3.40;;;0.70;;
5559;SDS011;2803;47.916;8.074;2023-12-20T06:01:29;2.20;;;0.70;;
5559;SDS011;2803;47.916;8.074;2023-12-20T06:03:56;0.80;;;0.50;;
5559;SDS011;2803;47.916;8.074;2023-12-20T06:06:24;1.63;;;0.70;;
5559;SDS011;2803;47.916;8.074;2023-12-20T06:08:50;3.03;;;1.00;;
5559;SDS011;2803;47.916;8.074;2023-12-20T06:11:17;2.17;;;0.73;;
5559;SDS011;2803;47.916;8.074;2023-12-20T06:13:44;3.80;;;0.73;;
5559;SDS011;2803;47.916;8.074;2023-12-20T06:16:11;1.33;;;0.70;;
5559;SDS011;2803;47.916;8.074;2023-12-20T06:18:38;1.03;;;0.50;;
5559;SDS011;2803;47.916;8.074;2023-12-20T06:21:04;2.40;;;0.73;;
5559;SDS011;2803;47.916;8.074;2023-12-20T06:23:33;2.77;;;1.23;;
5559;SDS011;2803;47.916;8.074;2023-12-20T06:26:00;4.77;;;1.10;;
5559;SDS011;2803;47.916;8.074;2023-12-20T06:28:27;3.40;;;1.00;;
5559;SDS011;2803;47.916;8.074;2023-12-20T06:30:54;1.30;;;1.10;;
5559;SDS011;2803;47.916;8.074;2023-12-20T06:33:22;1.00;;;0.80;;
5559;SDS011;2803;47.916;8.074;2023-12-20T06:35:49;3.43;;;0.67;;
5559;SDS011;2803;47.916;8.074;2023-12-20T06:38:17;1.50;;;0.50;;
5559;SDS011;2803;47.916;8.074;2023-12-20T06:40:45;4.63;;;0.80;;
5559;SDS011;2803;47.916;8.074;2023-12-20T06:43:12;2.93;;;0.70;;
5559;SDS011;2803;47.916;8.074;2023-12-20T06:45:39;2.60;;;0.70;;
5559;SDS011;2803;47.916;8.074;2023-12-20T06:48:05;1.57;;;0.60;;
5559;SDS011;2803;47.916;8.074;2023-12-20T06:50:33;0.90;;;0.63;;
5559;SDS011;2803;47.916;8.074;2023-12-20T06:53:04;2.90;;;0.90;;
5559;SDS011;2803;47.916;8.074;2023-12-20T06:55:32;1.33;;;0.60;;
5559;SDS011;2803;47.916;8.074;2023-12-20T06:58:00;0.90;;;0.50;;
5559;SDS011;2803;47.916;8.074;2023-12-20T07:00:27;1.73;;;0.60;;
5559;SDS011;2803;47.916;8.074;2023-12-20T07:02:53;2.23;;;0.60;;
5559;SDS011;2803;47.916;8.074;2023-12-20T07:05:20;3.67;;;0.90;;
5559;SDS011;2803;47.916;8.074;2023-12-20T07:07:47;1.73;;;0.73;;
5559;SDS011;2803;47.916;8.074;2023-12-20T07:10:14;1.57;;;0.70;;
5559;SDS011;2803;47.916;8.074;2023-12-20T07:12:40;4.27;;;0.83;;
5559;SDS011;2803;47.916;8.074;2023-12-20T07:15:08;1.93;;;0.70;;
5559;SDS011;2803;47.916;8.074;2023-12-20T07:17:35;1.33;;;0.60;;
5559;SDS011;2803;47.916;8.074;2023-12-20T07:20:03;0.90;;;0.70;;
5559;SDS011;2803;47.916;8.074;2023-12-20T07:22:34;1.33;;;0.70;;
5559;SDS011;2803;47.916;8.074;2023-12-20T07:25:00;3.60;;;1.20;;
5559;SDS011;2803;47.916;8.074;2023-12-20T07:27:27;0.93;;;0.83;;
5559;SDS011;2803;47.916;8.074;2023-12-20T07:29:53;3.13;;;0.70;;
5559;SDS011;2803;47.916;8.074;2023-12-20T07:32:21;1.97;;;0.90;;
5559;SDS011;2803;47.916;8.074;2023-12-20T07:34:48;0.90;;;0.60;;
5559;SDS011;2803;47.916;8.074;2023-12-20T07:37:15;1.10;;;0.73;;
5559;SDS011;2803;47.916;8.074;2023-12-20T07:39:41;3.30;;;0.80;;
5559;SDS011;2803;47.916;8.074;2023-12-20T07:42:08;0.90;;;0.60;;
5559;SDS011;2803;47.916;8.074;2023-12-20T07:44:35;1.67;;;0.87;;
5559;SDS011;2803;47.916;8.074;2023-12-20T07:47:01;6.50;;;0.97;;
5559;SDS011;2803;47.916;8.074;2023-12-20T07:49:29;1.30;;;0.80;;
5559;SDS011;2803;47.916;8.074;2023-12-20T07:51:56;3.20;;;0.90;;
5559;SDS011;2803;47.916;8.074;2023-12-20T07:54:23;2.80;;;0.90;;
5559;SDS011;2803;47.916;8.074;2023-12-20T07:56:49;5.50;;;1.33;;
5559;SDS011;2803;47.916;8.074;2023-12-20T07:59:16;1.43;;;0.80;;
5559;SDS011;2803;47.916;8.074;2023-12-20T08:01:43;1.57;;;1.10;;
5559;SDS011;2803;47.916;8.074;2023-12-20T08:04:09;1.93;;;0.90;;
5559;SDS011;2803;47.916;8.074;2023-12-20T08:06:37;1.40;;;0.70;;
5559;SDS011;2803;47.916;8.074;2023-12-20T08:09:04;6.30;;;0.70;;
5559;SDS011;2803;47.916;8.074;2023-12-20T08:11:30;0.80;;;0.53;;
5559;SDS011;2803;47.916;8.074;2023-12-20T08:13:57;5.17;;;0.70;;
5559;SDS011;2803;47.916;8.074;2023-12-20T08:16:23;0.80;;;0.53;;
5559;SDS011;2803;47.916;8.074;2023-12-20T08:18:51;1.00;;;0.60;;
5559;SDS011;2803;47.916;8.074;2023-12-20T08:21:17;1.00;;;0.60;;
5559;SDS011;2803;47.916;8.074;2023-12-20T08:23:46;1.63;;;0.80;;
5559;SDS011;2803;47.916;8.074;2023-12-20T08:26:14;3.13;;;0.90;;
5559;SDS011;2803;47.916;8.074;2023-12-20T08:28:46;1.00;;;0.73;;
5559;SDS011;2803;47.916;8.074;2023-12-20T08:31:13;1.00;;;0.90;;
5559;SDS011;2803;47.916;8.074;2023-12-20T08:33:40;3.13;;;0.60;;
5559;SDS011;2803;47.916;8.074;2023-12-20T08:36:07;2.10;;;1.00;;
5559;SDS011;2803;47.916;8.074;2023-12-20T08:38:34;1.50;;;0.70;;
5559;SDS011;2803;47.916;8.074;2023-12-20T08:41:02;5.63;;;1.10;;
5559;SDS011;2803;47.916;8.074;2023-12-20T08:43:30;4.20;;;1.00;;
5559;SDS011;2803;47.916;8.074;2023-12-20T08:45:56;3.17;;;1.03;;
5559;SDS011;2803;47.916;8.074;2023-12-20T08:48:23;1.30;;;0.87;;
5559;SDS011;2803;47.916;8.074;2023-12-20T08:50:49;1.70;;;1.17;;
5559;SDS011;2803;47.916;8.074;2023-12-20T08:53:17;1.10;;;0.90;;
5559;SDS011;2803;47.916;8.074;2023-12-20T08:55:44;1.33;;;0.63;;
5559;SDS011;2803;47.916;8.074;2023-12-20T08:58:12;1.47;;;1.00;;
5559;SDS011;2803;47.916;8.074;2023-12-20T09:00:38;2.23;;;1.00;;
5559;SDS011;2803;47.916;8.074;2023-12-20T09:03:05;0.90;;;0.77;;
5559;SDS011;2803;47.916;8.074;2023-12-20T09:05:32;5.07;;;1.00;;
5559;SDS011;2803;47.916;8.074;2023-12-20T09:07:58;4.80;;;1.17;;
5559;SDS011;2803;47.916;8.074;2023-12-20T09:10:25;2.17;;;1.60;;
5559;SDS011;2803;47.916;8.074;2023-12-20T09:12:52;1.80;;;1.40;;
5559;SDS011;2803;47.916;8.074;2023-12-20T09:15:22;2.10;;;1.60;;
5559;SDS011;2803;47.916;8.074;2023-12-20T09:17:49;1.53;;;1.43;;
5559;SDS011;2803;47.916;8.074;2023-12-20T09:20:15;3.53;;;1.50;;
5559;SDS011;2803;47.916;8.074;2023-12-20T09:22:42;2.03;;;1.60;;
5559;SDS011;2803;47.916;8.074;2023-12-20T09:25:09;3.97;;;2.50;;
5559;SDS011;2803;47.916;8.074;2023-12-20T09:27:37;2.90;;;2.40;;
5559;SDS011;2803;47.916;8.074;2023-12-20T09:30:04;11.70;;;2.77;;
5559;SDS011;2803;47.916;8.074;2023-12-20T09:32:32;3.70;;;2.10;;
5559;SDS011;2803;47.916;8.074;2023-12-20T09:34:59;3.40;;;2.03;;
5559;SDS011;2803;47.916;8.074;2023-12-20T09:37:26;3.83;;;2.20;;
5559;SDS011;2803;47.916;8.074;2023-12-20T09:39:53;3.83;;;2.53;;
5559;SDS011;2803;47.916;8.074;2023-12-20T09:42:21;2.70;;;1.70;;
5559;SDS011;2803;47.916;8.074;2023-12-20T09:44:51;5.30;;;2.43;;
5559;SDS011;2803;47.916;8.074;2023-12-20T09:47:18;3.20;;;2.77;;
5559;SDS011;2803;47.916;8.074;2023-12-20T09:49:50;5.13;;;2.77;;
5559;SDS011;2803;47.916;8.074;2023-12-20T09:52:17;3.63;;;2.90;;
5559;SDS011;2803;47.916;8.074;2023-12-20T09:54:44;3.00;;;2.43;;
5559;SDS011;2803;47.916;8.074;2023-12-20T09:57:13;4.20;;;2.40;;
5559;SDS011;2803;47.916;8.074;2023-12-20T09:59:40;6.50;;;2.70;;
5559;SDS011;2803;47.916;8.074;2023-12-20T10:02:07;4.70;;;2.33;;
5559;SDS011;2803;47.916;8.074;2023-12-20T10:04:39;5.50;;;2.40;;
5559;SDS011;2803;47.916;8.074;2023-12-20T10:07:12;3.73;;;2.23;;
5559;SDS011;2803;47.916;8.074;2023-12-20T10:09:38;3.30;;;2.47;;
5559;SDS011;2803;47.916;8.074;2023-12-20T10:12:06;2.93;;;2.63;;
5559;SDS011;2803;47.916;8.074;2023-12-20T10:14:33;6.20;;;3.30;;
5559;SDS011;2803;47.916;8.074;2023-12-20T10:17:02;2.83;;;2.27;;
5559;SDS011;2803;47.916;8.074;2023-12-20T10:19:29;4.53;;;2.80;;
5559;SDS011;2803;47.916;8.074;2023-12-20T10:21:55;2.70;;;1.90;;
5559;SDS011;2803;47.916;8.074;2023-12-20T10:24:24;4.23;;;2.60;;
5559;SDS011;2803;47.916;8.074;2023-12-20T10:27:00;6.03;;;3.10;;
5559;SDS011;2803;47.916;8.074;2023-12-20T10:29:28;4.73;;;3.30;;
5559;SDS011;2803;47.916;8.074;2023-12-20T10:31:58;7.73;;;3.63;;
5559;SDS011;2803;47.916;8.074;2023-12-20T10:34:24;6.90;;;3.67;;
5559;SDS011;2803;47.916;8.074;2023-12-20T10:36:51;6.73;;;4.33;;
5559;SDS011;2803;47.916;8.074;2023-12-20T10:39:18;9.67;;;4.47;;
5559;SDS011;2803;47.916;8.074;2023-12-20T10:41:47;5.80;;;4.37;;
5559;SDS011;2803;47.916;8.074;2023-12-20T10:44:14;6.33;;;4.33;;
5559;SDS011;2803;47.916;8.074;2023-12-20T10:46:41;4.87;;;3.33;;
5559;SDS011;2803;47.916;8.074;2023-12-20T10:49:14;7.83;;;4.60;;
5559;SDS011;2803;47.916;8.074;2023-12-20T10:51:43;9.60;;;4.90;;
5559;SDS011;2803;47.916;8.074;2023-12-20T10:54:11;6.43;;;4.50;;
5559;SDS011;2803;47.916;8.074;2023-12-20T10:56:38;9.07;;;4.97;;
5559;SDS011;2803;47.916;8.074;2023-12-20T10:59:06;7.20;;;4.60;;
5559;SDS011;2803;47.916;8.074;2023-12-20T11:01:36;12.73;;;5.03;;
5559;SDS011;2803;47.916;8.074;2023-12-20T11:04:06;6.30;;;4.73;;
5559;SDS011;2803;47.916;8.074;2023-12-20T11:06:40;6.37;;;4.23;;
5559;SDS011;2803;47.916;8.074;2023-12-20T11:09:13;7.20;;;4.07;;
5559;SDS011;2803;47.916;8.074;2023-12-20T11:11:50;5.60;;;3.63;;
5559;SDS011;2803;47.916;8.074;2023-12-20T11:14:27;9.83;;;3.33;;
5559;SDS011;2803;47.916;8.074;2023-12-20T11:17:07;5.80;;;3.00;;
5559;SDS011;2803;47.916;8.074;2023-12-20T11:19:35;5.60;;;3.57;;
5559;SDS011;2803;47.916;8.074;2023-12-20T11:22:03;8.43;;;3.50;;
5559;SDS011;2803;47.916;8.074;2023-12-20T11:24:31;9.40;;;3.50;;
5559;SDS011;2803;47.916;8.074;2023-12-20T11:26:59;16.90;;;4.00;;
5559;SDS011;2803;47.916;8.074;2023-12-20T11:29:30;9.03;;;4.00;;
5559;SDS011;2803;47.916;8.074;2023-12-20T11:31:57;9.30;;;5.07;;
5559;SDS011;2803;47.916;8.074;2023-12-20T11:34:26;7.80;;;4.00;;
5559;SDS011;2803;47.916;8.074;2023-12-20T11:36:56;6.20;;;3.77;;
5559;SDS011;2803;47.916;8.074;2023-12-20T11:39:23;6.77;;;3.80;;
5559;SDS011;2803;47.916;8.074;2023-12-20T11:41:52;6.90;;;3.90;;
5559;SDS011;2803;47.916;8.074;2023-12-20T11:44:19;11.33;;;3.77;;
5559;SDS011;2803;47.916;8.074;2023-12-20T11:46:47;8.33;;;3.47;;
5559;SDS011;2803;47.916;8.074;2023-12-20T11:49:14;9.23;;;3.77;;
5559;SDS011;2803;47.916;8.074;2023-12-20T11:51:41;5.07;;;3.50;;
5559;SDS011;2803;47.916;8.074;2023-12-20T11:54:08;5.70;;;4.07;;
5559;SDS011;2803;47.916;8.074;2023-12-20T11:56:36;6.30;;;3.40;;
5559;SDS011;2803;47.916;8.074;2023-12-20T11:59:02;8.63;;;3.60;;
5559;SDS011;2803;47.916;8.074;2023-12-20T12:01:29;5.97;;;3.20;;
5559;SDS011;2803;47.916;8.074;2023-12-20T12:04:03;5.27;;;3.27;;
5559;SDS011;2803;47.916;8.074;2023-12-20T12:06:30;9.03;;;3.10;;
5559;SDS011;2803;47.916;8.074;2023-12-20T12:08:57;11.53;;;4.23;;
5559;SDS011;2803;47.916;8.074;2023-12-20T12:11:24;12.70;;;3.63;;
5559;SDS011;2803;47.916;8.074;2023-12-20T12:13:51;11.57;;;3.47;;
5559;SDS011;2803;47.916;8.074;2023-12-20T12:16:18;15.17;;;4.33;;
5559;SDS011;2803;47.916;8.074;2023-12-20T12:18:45;13.83;;;3.93;;
5559;SDS011;2803;47.916;8.074;2023-12-20T12:21:20;8.20;;;3.70;;
5559;SDS011;2803;47.916;8.074;2023-12-20T12:23:45;15.80;;;4.10;;
5559;SDS011;2803;47.916;8.074;2023-12-20T12:26:12;12.70;;;3.53;;
5559;SDS011;2803;47.916;8.074;2023-12-20T12:28:39;7.80;;;3.43;;
5559;SDS011;2803;47.916;8.074;2023-12-20T12:31:07;15.90;;;3.87;;
5559;SDS011;2803;47.916;8.074;2023-12-20T12:33:34;5.33;;;3.37;;
5559;SDS011;2803;47.916;8.074;2023-12-20T12:36:01;8.83;;;3.50;;
5559;SDS011;2803;47.916;8.074;2023-12-20T12:38:30;11.33;;;3.70;;
5559;SDS011;2803;47.916;8.074;2023-12-20T12:40:57;13.17;;;3.70;;
5559;SDS011;2803;47.916;8.074;2023-12-20T12:43:24;9.90;;;3.20;;
5559;SDS011;2803;47.916;8.074;2023-12-20T12:45:50;8.37;;;3.07;;
5559;SDS011;2803;47.916;8.074;2023-12-20T12:48:17;8.47;;;3.47;;
5559;SDS011;2803;47.916;8.074;2023-12-20T12:50:45;7.60;;;3.10;;
5559;SDS011;2803;47.916;8.074;2023-12-20T12:53:12;8.50;;;3.53;;
5559;SDS011;2803;47.916;8.074;2023-12-20T12:55:40;14.27;;;2.93;;
5559;SDS011;2803;47.916;8.074;2023-12-20T12:58:06;15.53;;;3.20;;
5559;SDS011;2803;47.916;8.074;2023-12-20T13:00:33;8.70;;;3.23;;
5559;SDS011;2803;47.916;8.074;2023-12-20T13:02:59;6.70;;;2.53;;
5559;SDS011;2803;47.916;8.074;2023-12-20T13:05:26;7.83;;;3.77;;
5559;SDS011;2803;47.916;8.074;2023-12-20T13:07:53;10.43;;;3.30;;
5559;SDS011;2803;47.916;8.074;2023-12-20T13:10:19;18.97;;;3.37;;
5559;SDS011;2803;47.916;8.074;2023-12-20T13:12:47;4.80;;;2.03;;
5559;SDS011;2803;47.916;8.074;2023-12-20T13:15:14;12.23;;;3.33;;
5559;SDS011;2803;47.916;8.074;2023-12-20T13:17:41;6.07;;;2.43;;
5559;SDS011;2803;47.916;8.074;2023-12-20T13:20:08;7.90;;;2.60;;
5559;SDS011;2803;47.916;8.074;2023-12-20T13:22:35;16.00;;;3.13;;
5559;SDS011;2803;47.916;8.074;2023-12-20T13:25:01;10.40;;;2.60;;
5559;SDS011;2803;47.916;8.074;2023-12-20T13:27:28;9.33;;;2.40;;
5559;SDS011;2803;47.916;8.074;2023-12-20T13:29:56;5.20;;;1.97;;
5559;SDS011;2803;47.916;8.074;2023-12-20T13:32:24;10.70;;;2.40;;
5559;SDS011;2803;47.916;8.074;2023-12-20T13:34:50;8.73;;;2.30;;
5559;SDS011;2803;47.916;8.074;2023-12-20T13:37:17;6.40;;;2.13;;
5559;SDS011;2803;47.916;8.074;2023-12-20T13:39:44;4.10;;;2.10;;
5559;SDS011;2803;47.916;8.074;2023-12-20T13:42:11;12.03;;;1.93;;
5559;SDS011;2803;47.916;8.074;2023-12-20T13:44:37;10.60;;;2.10;;
5559;SDS011;2803;47.916;8.074;2023-12-20T13:47:05;7.87;;;1.90;;
5559;SDS011;2803;47.916;8.074;2023-12-20T13:49:32;2.53;;;1.70;;
5559;SDS011;2803;47.916;8.074;2023-12-20T13:52:00;3.47;;;1.37;;
5559;SDS011;2803;47.916;8.074;2023-12-20T13:54:29;8.03;;;1.97;;
5559;SDS011;2803;47.916;8.074;2023-12-20T13:56:55;3.13;;;1.50;;
5559;SDS011;2803;47.916;8.074;2023-12-20T13:59:23;8.47;;;1.80;;
5559;SDS011;2803;47.916;8.074;2023-12-20T14:01:49;8.13;;;1.73;;
5559;SDS011;2803;47.916;8.074;2023-12-20T14:04:17;5.50;;;1.93;;
5559;SDS011;2803;47.916;8.074;2023-12-20T14:06:44;7.10;;;1.20;;
5559;SDS011;2803;47.916;8.074;2023-12-20T14:09:10;17.93;;;1.70;;
5559;SDS011;2803;47.916;8.074;2023-12-20T14:11:37;3.80;;;1.47;;
5559;SDS011;2803;47.916;8.074;2023-12-20T14:14:06;8.33;;;1.90;;
5559;SDS011;2803;47.916;8.074;2023-12-20T14:16:32;3.33;;;1.37;;
5559;SDS011;2803;47.916;8.074;2023-12-20T14:18:59;7.33;;;1.60;;
5559;SDS011;2803;47.916;8.074;2023-12-20T14:21:29;5.57;;;1.60;;
5559;SDS011;2803;47.916;8.074;2023-12-20T14:23:55;7.53;;;1.60;;
5559;SDS011;2803;47.916;8.074;2023-12-20T14:26:22;3.93;;;1.40;;
5559;SDS011;2803;47.916;8.074;2023-12-20T14:28:48;4.40;;;1.60;;
5559;SDS011;2803;47.916;8.074;2023-12-20T14:31:15;10.37;;;2.00;;
5559;SDS011;2803;47.916;8.074;2023-12-20T14:33:42;4.00;;;1.60;;
5559;SDS011;2803;47.916;8.074;2023-12-20T14:36:08;4.17;;;1.53;;
5559;SDS011;2803;47.916;8.074;2023-12-20T14:38:36;8.73;;;1.77;;
5559;SDS011;2803;47.916;8.074;2023-12-20T14:41:03;4.93;;;1.80;;
5559;SDS011;2803;47.916;8.074;2023-12-20T14:43:33;4.80;;;1.47;;
5559;SDS011;2803;47.916;8.074;2023-12-20T14:45:59;12.20;;;1.90;;
5559;SDS011;2803;47.916;8.074;2023-12-20T14:48:26;5.20;;;1.60;;
5559;SDS011;2803;47.916;8.074;2023-12-20T14:50:53;2.87;;;1.30;;
5559;SDS011;2803;47.916;8.074;2023-12-20T14:53:19;5.43;;;1.60;;
5559;SDS011;2803;47.916;8.074;2023-12-20T14:55:47;6.63;;;2.60;;
5559;SDS011;2803;47.916;8.074;2023-12-20T14:58:15;11.00;;;1.83;;
5559;SDS011;2803;47.916;8.074;2023-12-20T15:00:42;5.23;;;1.60;;
5559;SDS011;2803;47.916;8.074;2023-12-20T15:03:10;2.97;;;1.53;;
5559;SDS011;2803;47.916;8.074;2023-12-20T15:05:36;11.17;;;1.60;;
5559;SDS011;2803;47.916;8.074;2023-12-20T15:08:04;6.20;;;1.87;;
5559;SDS011;2803;47.916;8.074;2023-12-20T15:10:31;3.63;;;1.60;;
5559;SDS011;2803;47.916;8.074;2023-12-20T15:12:59;3.53;;;1.20;;
5559;SDS011;2803;47.916;8.074;2023-12-20T15:15:26;4.30;;;1.53;;